Time;durP1;ratioP1;P1;durP2;ratioP2;P2;SDS_P1;SDS_P2;PMS_P1;PMS_P2;Temp;Humidity;BMP_temperature;BMP_pressure;BME280_temperature;BME280_humidity;BME280_pressure;Samples;Min_cycle;Max_cycle;Signal;HPM_P1;HPM_P2
2022/06/13 00:01:27;;;;;;;8.60;5.70;;;;;;;19.16;48.81;99991.60;106270;1271;97843;-62
2022/06/13 00:03:57;;;;;;;10.30;5.60;;;;;;;19.13;49.05;99987.71;107746;1270;138981;-60
2022/06/13 00:06:26;;;;;;;7.40;5.10;;;;;;;19.12;49.26;99993.43;107844;1270;112414;-60
2022/06/13 00:08:55;;;;;;;8.50;5.70;;;;;;;19.13;49.29;99991.12;107834;1270;108938;-60
2022/06/13 00:11:25;;;;;;;11.20;5.80;;;;;;;19.12;49.63;99991.87;107675;1270;138129;-60
2022/06/13 00:13:56;;;;;;;8.80;5.60;;;;;;;19.13;49.73;99986.16;107787;1270;95917;-61
2022/06/13 00:16:25;;;;;;;9.50;5.10;;;;;;;19.14;49.85;99982.19;107678;1270;138283;-60
2022/06/13 00:18:54;;;;;;;10.20;5.70;;;;;;;19.14;49.84;99980.09;107842;1269;111588;-60
2022/06/13 00:21:25;;;;;;;11.20;6.20;;;;;;;19.17;50.04;99984.96;107718;1270;138471;-60
2022/06/13 00:23:54;;;;;;;7.70;5.00;;;;;;;19.22;50.12;99985.69;107795;1270;109269;-60
2022/06/13 00:26:25;;;;;;;7.30;5.20;;;;;;;19.25;50.10;99984.20;107810;1270;96193;-60
2022/06/13 00:28:54;;;;;;;7.00;5.60;;;;;;;19.31;50.35;99992.57;107241;1271;137788;-61
2022/06/13 00:31:24;;;;;;;9.10;5.40;;;;;;;19.35;50.10;99997.80;106331;1271;112337;-62
2022/06/13 00:33:53;;;;;;;9.70;5.00;;;;;;;19.37;50.00;99997.64;106232;1271;137908;-61
2022/06/13 00:36:23;;;;;;;8.30;5.00;;;;;;;19.38;50.01;100000.20;106251;1271;108819;-61
2022/06/13 00:38:54;;;;;;;10.60;5.10;;;;;;;19.40;49.94;100009.42;106283;1271;97818;-61
2022/06/13 00:41:26;;;;;;;7.90;4.80;;;;;;;19.40;50.04;100026.73;107752;1270;137887;-61
2022/06/13 00:43:55;;;;;;;8.20;4.80;;;;;;;19.40;50.27;100065.69;107531;1270;112421;-61
2022/06/13 00:46:26;;;;;;;9.40;5.20;;;;;;;19.39;50.76;100075.64;107691;1270;138488;-61
2022/06/13 00:49:00;;;;;;;9.40;5.90;;;;;;;19.36;51.59;100079.88;107836;1269;107975;-61
2022/06/13 00:51:32;;;;;;;18.80;6.40;;;;;;;19.30;52.73;100098.08;107090;1270;137998;-62
2022/06/13 00:54:01;;;;;;;11.80;6.80;;;;;;;19.22;54.04;100098.86;107727;1270;96267;-61
2022/06/13 00:56:34;;;;;;;14.80;6.30;;;;;;;19.15;54.91;100097.94;107837;1270;111689;-61
2022/06/13 00:59:06;;;;;;;9.80;5.80;;;;;;;19.11;55.38;100097.31;107698;1270;140366;-61
2022/06/13 01:01:35;;;;;;;14.50;6.30;;;;;;;19.05;55.98;100099.69;106639;1270;107827;-62
2022/06/13 01:04:06;;;;;;;12.70;6.90;;;;;;;18.99;56.73;100095.34;106277;1270;139409;-61
2022/06/13 01:06:38;;;;;;;10.40;6.70;;;;;;;18.95;57.36;100095.95;106248;1269;97828;-61
2022/06/13 01:09:09;;;;;;;11.60;6.40;;;;;;;18.92;58.04;100085.13;106300;1270;112817;-61
2022/06/13 01:11:45;;;;;;;16.00;7.10;;;;;;;18.88;58.46;100064.09;106183;1271;138683;-62
2022/06/13 01:14:51;;;;;;;11.50;6.60;;;;;;;18.82;58.70;100059.73;107829;1269;108491;-61
2022/06/13 01:17:41;;;;;;;12.50;6.30;;;;;;;18.75;59.45;100063.02;107295;1276;139734;-61
2022/06/13 01:20:44;;;;;;;11.60;5.30;;;;;;;18.69;59.92;100057.23;107492;1274;96349;-61
2022/06/13 01:23:41;;;;;;;12.00;5.50;;;;;;;18.63;59.87;100050.23;107284;1275;139100;-61
2022/06/13 01:26:39;;;;;;;11.40;5.30;;;;;;;18.53;60.00;100044.06;107476;1274;107589;-61
2022/06/13 01:29:31;;;;;;;9.60;5.40;;;;;;;18.45;60.56;100034.39;107353;1276;138864;-61
2022/06/13 01:32:08;;;;;;;13.80;5.60;;;;;;;18.42;60.86;100028.63;107526;1276;96059;-61
2022/06/13 01:34:44;;;;;;;11.50;5.70;;;;;;;18.42;61.24;100024.57;107329;1276;138863;-62
2022/06/13 01:37:26;;;;;;;10.50;5.50;;;;;;;18.39;61.45;100012.83;107172;1274;112911;-61
2022/06/13 01:40:05;;;;;;;11.80;5.50;;;;;;;18.35;61.70;100000.39;105835;1276;153000;-62
2022/06/13 01:42:42;;;;;;;9.10;5.00;;;;;;;18.34;61.74;99996.30;107421;1275;108044;-61
2022/06/13 01:45:12;;;;;;;;;;;;;;;18.34;62.01;99989.55;107526;1275;95951;-60
2022/06/13 01:47:50;;;;;;;9.70;5.10;;;;;;;18.34;62.17;99985.20;107440;1275;125844;-60
2022/06/13 01:50:25;;;;;;;10.00;5.00;;;;;;;18.30;62.28;99980.33;107452;1276;112991;-60
2022/06/13 01:53:02;;;;;;;10.30;4.50;;;;;;;18.25;62.28;99979.47;107353;1276;139091;-62
2022/06/13 01:55:41;;;;;;;10.00;4.30;;;;;;;18.21;62.44;99980.81;107788;1270;106960;-62
2022/06/13 01:58:22;;;;;;;11.90;4.60;;;;;;;18.19;62.51;99980.95;107691;1270;138463;-60
2022/06/13 02:01:02;;;;;;;8.30;4.20;;;;;;;18.14;62.61;99973.16;107824;1270;95818;-60
2022/06/13 02:03:39;;;;;;;7.90;4.30;;;;;;;18.11;62.94;99969.80;107683;1270;138475;-60
2022/06/13 02:06:11;;;;;;;;;;;;;;;18.12;62.89;99968.84;107850;1270;108943;-60
2022/06/13 02:08:45;;;;;;;12.00;4.90;;;;;;;18.07;62.88;99964.48;107829;1271;109365;-60
2022/06/13 02:11:20;;;;;;;10.90;4.80;;;;;;;18.03;62.99;99958.05;107681;1270;139528;-61
2022/06/13 02:13:52;;;;;;;10.80;4.30;;;;;;;18.00;63.07;99953.87;107852;1270;95822;-60
2022/06/13 02:16:24;;;;;;;9.30;4.70;;;;;;;17.97;63.19;99948.47;107680;1270;138772;-61
2022/06/13 02:19:00;;;;;;;9.30;4.20;;;;;;;17.95;63.38;99955.27;107836;1270;108792;-60
2022/06/13 02:21:40;;;;;;;12.30;6.20;;;;;;;17.94;63.39;99951.77;106432;1270;138525;-62
2022/06/13 02:24:13;;;;;;;9.10;4.40;;;;;;;17.90;63.36;99950.70;106364;1270;98164;-62
2022/06/13 02:26:44;;;;;;;8.00;3.90;;;;;;;17.84;63.46;99944.23;107177;1271;95704;-62
2022/06/13 02:29:19;;;;;;;8.60;4.90;;;;;;;17.79;63.74;99943.85;107720;1270;138124;-60
2022/06/13 02:31:54;;;;;;;8.70;4.20;;;;;;;17.76;64.06;99932.08;107822;1270;108810;-60
2022/06/13 02:34:28;;;;;;;9.90;5.00;;;;;;;17.76;64.13;99930.51;106946;1269;138893;-60
2022/06/13 02:37:03;;;;;;;8.30;4.10;;;;;;;17.74;64.25;99925.71;107695;1270;96827;-60
2022/06/13 02:39:40;;;;;;;12.70;4.60;;;;;;;17.73;64.48;99931.90;106194;1271;138367;-61
2022/06/13 02:42:20;;;;;;;11.90;4.60;;;;;;;17.69;64.44;99928.52;106308;1270;111822;-58
2022/06/13 02:44:53;;;;;;;10.10;4.70;;;;;;;17.68;64.68;99931.40;106319;1270;108226;-61
2022/06/13 02:47:28;;;;;;;12.00;4.30;;;;;;;17.65;64.76;99928.57;106159;1270;138771;-61
2022/06/13 02:50:02;;;;;;;8.80;4.50;;;;;;;17.66;64.98;99926.95;106357;1271;97828;-61
2022/06/13 02:52:37;;;;;;;11.20;5.20;;;;;;;17.64;64.89;99923.23;106253;1271;138204;-61
2022/06/13 02:55:11;;;;;;;8.40;4.50;;;;;;;17.65;65.25;99911.21;106308;1271;112025;-60
2022/06/13 02:57:56;;;;;;;9.40;4.20;;;;;;;17.67;65.21;99910.51;107741;1270;139184;-61
2022/06/13 03:00:50;;;;;;;11.50;4.70;;;;;;;17.69;65.19;99907.63;107681;1270;108964;-63
2022/06/13 03:03:25;;;;;;;8.00;4.30;;;;;;;17.72;65.10;99902.65;107213;1271;138793;-60
2022/06/13 03:06:00;;;;;;;9.50;4.30;;;;;;;17.73;65.29;99906.08;107072;1271;96630;-61
2022/06/13 03:08:54;;;;;;;8.20;5.20;;;;;;;17.76;65.34;99903.98;107831;1271;112296;-61
2022/06/13 03:11:47;;;;;;;9.50;5.00;;;;;;;17.77;65.17;99900.02;107002;1271;138332;-62
2022/06/13 03:14:29;;;;;;;8.90;4.90;;;;;;;17.79;65.11;99906.42;106347;1271;108536;-61
2022/06/13 03:17:03;;;;;;;10.40;5.00;;;;;;;17.82;65.01;99904.98;107756;1270;139014;-61
2022/06/13 03:19:37;;;;;;;10.10;5.30;;;;;;;17.83;64.97;99907.00;107884;1270;96274;-61
2022/06/13 03:22:15;;;;;;;10.90;4.80;;;;;;;17.85;65.14;99904.96;107758;1271;138912;-61
2022/06/13 03:24:51;;;;;;;8.50;4.30;;;;;;;17.82;65.15;99903.95;106816;1270;109762;-62
2022/06/13 03:27:27;;;;;;;9.70;5.30;;;;;;;17.71;65.12;99900.43;107762;1271;139297;-61
2022/06/13 03:30:00;;;;;;;10.50;5.00;;;;;;;17.60;65.48;99902.02;107800;1270;95815;-61
2022/06/13 03:32:36;;;;;;;11.50;5.40;;;;;;;17.43;65.39;99900.30;107822;1270;96293;-62
2022/06/13 03:35:10;;;;;;;8.90;5.10;;;;;;;17.31;65.80;99900.23;107723;1270;138347;-61
2022/06/13 03:37:44;;;;;;;11.00;5.70;;;;;;;17.20;66.06;99892.91;107831;1270;109168;-61
2022/06/13 03:40:17;;;;;;;13.20;5.80;;;;;;;17.11;66.25;99892.41;107044;1270;138556;-61
2022/06/13 03:42:53;;;;;;;12.30;5.40;;;;;;;17.07;66.49;99892.15;106488;1271;97822;-61
2022/06/13 03:45:28;;;;;;;10.40;5.50;;;;;;;17.07;66.58;99890.58;107649;1271;138554;-61
2022/06/13 03:48:04;;;;;;;10.00;5.40;;;;;;;17.09;66.46;99889.75;107374;1271;112214;-61
2022/06/13 03:50:39;;;;;;;8.00;4.90;;;;;;;17.10;66.36;99888.27;106368;1271;109038;-63
2022/06/13 03:53:12;;;;;;;12.40;5.70;;;;;;;17.13;66.36;99893.34;107679;1270;138435;-62
2022/06/13 03:55:46;;;;;;;8.20;5.70;;;;;;;17.17;66.47;99903.05;106438;1271;97812;-62
2022/06/13 03:58:18;;;;;;;14.50;5.60;;;;;;;17.19;66.34;99916.13;106239;1271;138257;-62
2022/06/13 04:00:52;;;;;;;9.20;5.20;;;;;;;17.18;66.57;99923.23;106358;1271;111919;-61
2022/06/13 04:03:22;;;;;;;11.70;5.60;;;;;;;17.17;66.68;99930.12;106170;1271;138586;-62
2022/06/13 04:05:59;;;;;;;12.90;6.00;;;;;;;17.15;66.65;99940.64;106371;1271;107710;-61
2022/06/13 04:08:31;;;;;;;11.90;5.90;;;;;;;17.15;66.81;99945.19;106238;1271;97852;-61
2022/06/13 04:11:22;;;;;;;8.70;5.70;;;;;;;17.17;66.83;99952.25;106241;1271;139029;-61
2022/06/13 04:14:01;;;;;;;11.70;6.20;;;;;;;17.22;66.96;99956.52;106243;1271;112063;-62
2022/06/13 04:16:42;;;;;;;10.50;6.80;;;;;;;17.29;67.19;99955.36;107692;1270;139529;-61
2022/06/13 04:19:33;;;;;;;9.80;5.70;;;;;;;17.37;66.85;99948.38;107788;1270;109111;-61
2022/06/13 04:22:14;;;;;;;11.50;6.40;;;;;;;17.41;66.58;99946.52;107673;1271;138644;-61
2022/06/13 04:24:55;;;;;;;13.40;5.90;;;;;;;17.44;66.37;99943.52;107112;1271;95832;-60
2022/06/13 04:27:28;;;;;;;15.50;6.40;;;;;;;17.52;66.37;99949.48;106127;1270;139736;-62
2022/06/13 04:30:02;;;;;;;11.60;6.40;;;;;;;17.63;66.29;99954.26;106256;1271;110572;-61
2022/06/13 04:32:41;;;;;;;11.30;5.80;;;;;;;17.71;66.26;99948.82;107687;1271;108828;-61
2022/06/13 04:35:10;;;;;;;10.10;5.50;;;;;;;17.78;66.00;99945.70;106972;1271;139101;-61
2022/06/13 04:37:41;;;;;;;9.50;6.60;;;;;;;17.86;65.96;99944.42;106217;1271;98071;-61
2022/06/13 04:40:17;;;;;;;12.50;7.30;;;;;;;17.92;65.93;99935.20;106065;1271;139834;-61
2022/06/13 04:42:48;;;;;;;11.80;6.10;;;;;;;18.01;66.13;99927.80;107571;1271;108123;-62
2022/06/13 04:45:23;;;;;;;13.80;6.50;;;;;;;18.13;66.30;99922.70;107753;1271;108839;-62
2022/06/13 04:47:53;;;;;;;12.00;6.60;;;;;;;18.33;66.36;99916.23;106954;1271;96404;-61
2022/06/13 04:50:33;;;;;;;14.00;6.50;;;;;;;18.51;66.10;99915.86;106503;1271;99220;-62
2022/06/13 04:53:05;;;;;;;9.70;7.00;;;;;;;18.66;65.53;99907.42;106822;1271;139087;-63
2022/06/13 04:55:40;;;;;;;11.60;6.80;;;;;;;18.79;65.07;99909.52;106146;1271;107295;-61
2022/06/13 04:58:18;;;;;;;10.50;6.60;;;;;;;18.88;64.44;99910.98;107187;1271;139373;-61
2022/06/13 05:00:49;;;;;;;16.00;8.00;;;;;;;19.06;64.40;99912.86;106233;1271;97880;-62
2022/06/13 05:03:24;;;;;;;10.90;7.50;;;;;;;19.20;63.72;99918.14;107698;1270;139598;-61
2022/06/13 05:05:56;;;;;;;12.30;7.60;;;;;;;19.16;63.17;99918.76;106348;1271;111305;-62
2022/06/13 05:08:28;;;;;;;11.50;8.80;;;;;;;19.12;63.02;99916.80;107671;1271;107767;-60
2022/06/13 05:11:03;;;;;;;9.80;8.60;;;;;;;19.12;63.28;99913.98;107574;1272;139093;-60
2022/06/13 05:13:31;;;;;;;11.60;7.60;;;;;;;19.24;63.28;99909.60;107798;1271;96980;-61
2022/06/13 05:16:09;;;;;;;12.50;7.80;;;;;;;19.32;63.31;99907.91;107616;1271;138809;-61
2022/06/13 05:18:51;;;;;;;10.20;7.80;;;;;;;19.42;63.40;99904.19;107809;1270;111433;-61
2022/06/13 05:21:39;;;;;;;11.30;8.60;;;;;;;19.52;63.09;99902.88;107565;1271;139271;-61
2022/06/13 05:24:23;;;;;;;16.70;8.90;;;;;;;19.55;62.87;99899.16;106554;1271;108425;-62
2022/06/13 05:26:52;;;;;;;14.10;8.50;;;;;;;19.55;62.92;99898.48;106171;1271;98502;-62
2022/06/13 05:29:20;;;;;;;14.30;9.10;;;;;;;19.54;63.26;99904.31;106045;1271;138517;-60
2022/06/13 05:31:49;;;;;;;15.70;9.40;;;;;;;19.44;63.12;99895.08;107765;1270;112444;-62
2022/06/13 05:34:28;;;;;;;14.10;9.30;;;;;;;19.31;63.73;99896.48;107086;1271;139786;-61
2022/06/13 05:36:57;;;;;;;13.10;9.70;;;;;;;19.22;64.00;99893.15;107793;1271;107779;-62
2022/06/13 05:39:26;;;;;;;16.30;10.40;;;;;;;19.13;64.48;99894.16;106838;1271;138773;-61
2022/06/13 05:41:55;;;;;;;13.50;10.40;;;;;;;18.97;64.68;99894.42;106232;1271;98009;-61
2022/06/13 05:44:24;;;;;;;16.30;10.20;;;;;;;18.80;65.06;99892.16;107330;1270;111449;-61
2022/06/13 05:46:53;;;;;;;13.60;10.80;;;;;;;18.65;65.51;99885.48;106721;1271;138803;-61
2022/06/13 05:49:22;;;;;;;16.20;11.00;;;;;;;18.58;66.24;99886.98;106300;1271;106717;-61
2022/06/13 05:51:51;;;;;;;13.70;11.10;;;;;;;18.49;66.44;99886.23;106940;1270;139277;-61
2022/06/13 05:54:20;;;;;;;17.00;11.30;;;;;;;18.41;67.04;99886.13;106285;1270;97876;-62
2022/06/13 05:56:49;;;;;;;14.00;10.90;;;;;;;18.31;67.22;99887.52;107406;1270;112617;-62
2022/06/13 05:59:17;;;;;;;16.20;11.70;;;;;;;18.25;67.42;99885.45;106201;1270;140607;-61
2022/06/13 06:01:46;;;;;;;13.00;11.00;;;;;;;18.18;67.74;99883.89;106282;1271;108942;-62
2022/06/13 06:04:15;;;;;;;13.20;11.50;;;;;;;18.11;67.78;99880.05;106837;1271;138827;-62
2022/06/13 06:06:45;;;;;;;21.20;12.20;;;;;;;18.08;67.93;99879.42;107788;1271;95932;-60
2022/06/13 06:09:14;;;;;;;14.60;11.90;;;;;;;18.04;68.12;99878.14;107806;1271;111439;-62
2022/06/13 06:11:43;;;;;;;17.00;12.00;;;;;;;18.04;68.31;99876.37;107768;1271;107931;-61
2022/06/13 06:14:12;;;;;;;18.90;11.40;;;;;;;18.02;68.29;99874.21;107750;1271;107373;-61
2022/06/13 06:16:41;;;;;;;15.60;11.20;;;;;;;17.99;68.42;99874.59;106493;1271;140341;-62
2022/06/13 06:19:10;;;;;;;20.30;12.40;;;;;;;17.98;68.53;99865.38;106252;1270;97855;-62
2022/06/13 06:21:38;;;;;;;15.50;12.00;;;;;;;17.98;68.63;99859.18;106154;1270;139966;-62
2022/06/13 06:24:08;;;;;;;14.70;11.90;;;;;;;18.03;68.76;99852.68;106499;1271;108192;-61
2022/06/13 06:26:37;;;;;;;15.00;11.30;;;;;;;18.03;68.61;99848.10;107272;1271;108987;-61
2022/06/13 06:29:06;;;;;;;13.60;10.70;;;;;;;18.06;68.56;99850.02;105928;1273;138944;-65
2022/06/13 06:31:35;;;;;;;16.10;11.90;;;;;;;18.11;68.61;99843.47;106084;1271;98622;-66
2022/06/13 06:34:04;;;;;;;14.90;11.00;;;;;;;18.18;68.63;99838.86;106336;1270;139639;-66
2022/06/13 06:36:34;;;;;;;16.70;11.60;;;;;;;18.26;68.62;99833.65;106097;1271;108759;-67
2022/06/13 06:39:02;;;;;;;12.30;10.00;;;;;;;18.37;68.49;99829.86;106491;1271;106300;-66
2022/06/13 06:41:31;;;;;;;12.40;10.20;;;;;;;18.51;68.20;99831.32;105945;1271;139146;-66
2022/06/13 06:44:00;;;;;;;11.40;9.90;;;;;;;18.70;67.93;99828.23;107463;1271;96212;-67
2022/06/13 06:46:29;;;;;;;15.90;9.50;;;;;;;18.92;67.53;99830.55;106382;1271;139146;-65
2022/06/13 06:48:58;;;;;;;13.40;9.20;;;;;;;19.10;66.95;99831.14;107658;1271;108872;-65
2022/06/13 06:51:29;;;;;;;13.10;9.50;;;;;;;19.21;66.45;99831.84;107528;1271;138884;-65
2022/06/13 07:02:28;;;;;;;9.80;7.40;;;;;;;20.60;64.19;99807.17;106711;1273;107593;-65
2022/06/13 07:04:59;;;;;;;8.60;7.00;;;;;;;20.82;63.35;99806.13;106152;1270;139849;-64
2022/06/13 07:07:29;;;;;;;8.40;6.80;;;;;;;20.93;62.28;99804.88;106076;1272;97902;-64
2022/06/13 07:09:58;;;;;;;9.50;6.80;;;;;;;21.05;61.99;99801.14;106779;1271;138815;-64
2022/06/13 07:12:27;;;;;;;11.80;5.40;;;;;;;21.19;61.20;99801.83;107588;1271;112490;-65
2022/06/13 07:14:55;;;;;;;11.70;5.60;;;;;;;21.38;60.47;99807.67;107232;1271;109433;-64
2022/06/13 07:17:25;;;;;;;11.20;5.40;;;;;;;21.53;60.19;99801.58;106098;1270;137988;-64
2022/06/13 07:19:59;;;;;;;9.60;5.50;;;;;;;21.73;59.84;99803.33;107734;1270;96032;-65
2022/06/13 07:22:28;;;;;;;10.60;5.30;;;;;;;21.91;59.74;99803.14;107658;1270;137822;-65
2022/06/13 07:24:57;;;;;;;6.90;5.20;;;;;;;22.04;58.84;99806.64;107747;1270;111480;-65
2022/06/13 07:27:26;;;;;;;8.80;5.90;;;;;;;22.11;58.56;99810.66;107625;1270;138306;-65
2022/06/13 07:29:54;;;;;;;8.70;5.10;;;;;;;22.16;57.93;99805.73;107748;1270;107907;-65
2022/06/13 07:32:25;;;;;;;7.10;4.30;;;;;;;22.27;57.77;99799.52;107760;1270;96288;-65
2022/06/13 07:34:54;;;;;;;7.90;4.10;;;;;;;22.34;56.59;99801.75;107696;1270;138023;-66
2022/06/13 07:40:14;;;;;;;9.50;3.70;;;;;;;22.23;56.44;99798.42;106089;1270;138112;-64
2022/06/13 07:42:47;;;;;;;6.10;3.60;;;;;;;22.13;55.75;99799.30;107758;1270;108786;-65
2022/06/13 07:45:22;;;;;;;5.80;3.40;;;;;;;22.10;55.84;99806.67;107778;1270;96169;-66
2022/06/13 07:48:11;;;;;;;6.60;2.70;;;;;;;22.06;55.54;99812.70;107825;1270;96315;-65
2022/06/13 07:50:40;;;;;;;6.50;3.00;;;;;;;22.00;54.94;99809.39;106735;1271;113698;-66
2022/06/13 07:53:10;;;;;;;6.60;3.50;;;;;;;22.01;55.26;99807.54;106062;1270;137806;-66
2022/06/13 07:55:39;;;;;;;4.50;3.10;;;;;;;22.08;55.37;99803.96;107772;1270;108841;-64
2022/06/13 07:58:17;;;;;;;6.40;3.20;;;;;;;22.18;55.22;99802.59;107101;1270;137854;-64
2022/06/13 08:00:49;;;;;;;6.50;3.50;;;;;;;22.17;55.03;99798.39;106503;1271;97901;-66
2022/06/13 08:03:23;;;;;;;5.10;2.80;;;;;;;22.12;54.63;99796.90;107197;1271;112530;-66
2022/06/13 08:06:02;;;;;;;8.30;3.30;;;;;;;22.07;55.17;99792.89;106464;1271;107814;-66
2022/06/13 08:08:32;;;;;;;8.10;3.10;;;;;;;22.08;55.06;99796.20;106291;1270;108288;-65
2022/06/13 08:11:03;;;;;;;6.30;3.40;;;;;;;22.02;54.99;99798.33;106140;1270;137793;-64
2022/06/13 08:13:32;;;;;;;8.40;3.30;;;;;;;21.88;55.10;99800.06;107158;1270;96199;-65
2022/06/13 08:16:02;;;;;;;4.90;3.10;;;;;;;21.77;55.52;99808.98;106095;1271;137743;-65
2022/06/13 08:18:31;;;;;;;4.60;3.20;;;;;;;21.66;55.83;99806.67;107772;1271;108924;-65
2022/06/13 08:21:00;;;;;;;4.40;2.80;;;;;;;21.57;56.09;99802.34;107720;1270;109219;-66
2022/06/13 08:23:29;;;;;;;4.60;3.00;;;;;;;21.52;56.24;99790.95;107655;1270;138073;-66
2022/06/13 08:25:57;;;;;;;6.10;3.20;;;;;;;21.50;56.30;99779.98;107448;1270;202015;-66
2022/06/13 08:28:27;;;;;;;4.90;3.00;;;;;;;21.50;56.29;99773.36;106116;1271;137789;-65
2022/06/13 08:30:59;;;;;;;4.30;2.70;;;;;;;21.49;55.70;99772.25;106203;1271;107985;-68
2022/06/13 08:33:29;;;;;;;7.30;3.00;;;;;;;21.41;55.62;99767.13;106682;1270;137941;-66
2022/06/13 08:35:58;;;;;;;5.80;2.80;;;;;;;21.34;55.65;99768.91;106515;1270;97805;-68
2022/06/13 08:38:27;;;;;;;6.40;3.00;;;;;;;21.27;55.67;99770.20;106971;1270;97848;-68
2022/06/13 08:41:15;;;;;;;5.70;2.90;;;;;;;21.18;55.59;99768.33;106161;1271;138998;-67
2022/06/13 08:44:04;;;;;;;5.70;3.20;;;;;;;21.04;55.90;99762.40;107700;1270;108486;-67
2022/06/13 08:46:44;;;;;;;4.50;3.20;;;;;;;20.98;56.35;99767.45;107572;1271;137941;-64
2022/06/13 08:49:20;;;;;;;4.10;3.20;;;;;;;20.90;56.67;99773.16;107748;1271;96395;-64
2022/06/13 08:51:59;;;;;;;6.20;3.70;;;;;;;20.81;56.92;99772.09;107668;1270;138058;-64
2022/06/13 08:54:34;;;;;;;5.50;3.70;;;;;;;20.78;57.23;99774.80;107716;1270;112799;-64
2022/06/13 08:57:10;;;;;;;8.60;3.70;;;;;;;20.73;57.76;99775.07;106477;1271;108351;-64
2022/06/13 08:59:44;;;;;;;4.80;3.90;;;;;;;20.64;57.95;99771.35;107647;1270;137554;-65
2022/06/13 09:02:23;;;;;;;5.90;3.80;;;;;;;20.63;58.46;99773.73;107793;1270;96106;-65
2022/06/13 09:04:55;;;;;;;6.40;3.30;;;;;;;20.66;58.35;99783.21;107680;1270;138371;-65
2022/06/13 09:07:30;;;;;;;4.50;3.70;;;;;;;20.63;58.41;99784.13;106836;1269;111748;-65
2022/06/13 09:10:03;;;;;;;5.90;3.40;;;;;;;20.61;58.42;99786.30;107675;1270;138882;-66
2022/06/13 09:12:37;;;;;;;7.90;4.20;;;;;;;20.56;58.42;99792.73;107718;1270;108852;-65
2022/06/13 09:15:11;;;;;;;7.80;3.60;;;;;;;20.56;58.42;99802.92;106485;1270;97816;-64
2022/06/13 09:17:49;;;;;;;4.20;3.80;;;;;;;20.57;58.68;99818.38;107666;1269;138465;-64
2022/06/13 09:20:21;;;;;;;4.10;3.50;;;;;;;20.61;58.93;99817.55;107783;1270;112781;-64
2022/06/13 09:22:58;;;;;;;4.80;3.70;;;;;;;20.66;58.82;99817.27;107640;1270;139370;-66
2022/06/13 09:25:37;;;;;;;4.00;3.50;;;;;;;20.72;58.98;99815.70;107751;1269;109058;-65
2022/06/13 09:28:13;;;;;;;5.40;4.00;;;;;;;20.73;58.70;99815.30;106057;1270;138585;-65
2022/06/13 09:30:47;;;;;;;6.40;3.90;;;;;;;20.69;58.70;99815.65;107799;1270;96542;-65
2022/06/13 09:33:22;;;;;;;4.70;3.50;;;;;;;20.63;58.83;99818.24;106385;1270;110156;-65
2022/06/13 09:35:57;;;;;;;4.20;3.30;;;;;;;20.58;59.25;99814.09;107820;1270;109229;-64
2022/06/13 09:38:30;;;;;;;6.30;3.50;;;;;;;20.49;59.28;99815.45;107685;1271;111698;-65
2022/06/13 09:41:17;;;;;;;4.80;3.90;;;;;;;20.46;59.24;99822.04;107608;1270;138647;-65
2022/06/13 09:44:03;;;;;;;5.90;3.90;;;;;;;20.43;59.68;99827.59;107847;1270;96216;-65
2022/06/13 09:46:47;;;;;;;9.50;4.30;;;;;;;20.38;60.17;99827.27;107688;1270;138215;-65
2022/06/13 09:49:19;;;;;;;7.70;4.20;;;;;;;20.37;60.39;99827.36;107773;1270;107830;-64
2022/06/13 09:51:58;;;;;;;8.20;4.50;;;;;;;20.41;60.90;99830.21;107681;1270;140085;-65
2022/06/13 09:54:36;;;;;;;5.40;4.20;;;;;;;20.36;61.28;99823.23;107820;1270;96047;-64
2022/06/13 09:57:14;;;;;;;5.40;4.50;;;;;;;20.30;61.35;99810.09;107232;1270;97839;-66
2022/06/13 10:00:01;;;;;;;4.60;4.10;;;;;;;20.24;61.76;99803.12;107762;1270;112676;-65
2022/06/13 10:02:38;;;;;;;6.00;4.60;;;;;;;20.17;62.09;99795.63;107843;1270;107868;-65
2022/06/13 10:05:18;;;;;;;7.60;4.30;;;;;;;20.15;62.25;99792.38;107714;1270;139243;-65
2022/06/13 10:07:53;;;;;;;4.40;3.70;;;;;;;20.13;62.20;99790.60;107844;1270;96087;-65
2022/06/13 10:10:35;;;;;;;5.10;3.60;;;;;;;20.07;61.54;99784.06;107701;1270;139470;-63
2022/06/13 10:13:15;;;;;;;5.30;3.60;;;;;;;20.06;61.38;99776.34;107833;1270;112188;-64
2022/06/13 10:15:54;;;;;;;6.60;3.80;;;;;;;20.08;61.61;99788.73;107579;1271;138588;-65
2022/06/13 10:18:41;;;;;;;4.10;3.60;;;;;;;20.10;61.85;99784.33;107790;1270;107907;-65
2022/06/13 10:21:19;;;;;;;6.50;4.30;;;;;;;20.10;62.49;99774.27;106473;1271;97821;-65
2022/06/13 10:23:58;;;;;;;4.50;4.00;;;;;;;20.10;62.45;99774.08;106235;1271;98448;-65
2022/06/13 10:26:35;;;;;;;4.70;4.00;;;;;;;20.07;62.24;99770.08;106166;1271;112045;-65
2022/06/13 10:29:16;;;;;;;;;;;;;;;20.01;61.95;99762.64;105988;1271;139073;-63
2022/06/13 10:31:59;;;;;;;6.20;3.40;;;;;;;19.97;61.67;99760.64;106759;1271;109005;-65
2022/06/13 10:34:40;;;;;;;6.00;3.70;;;;;;;19.92;61.35;99754.48;107635;1271;138456;-64
2022/06/13 10:37:19;;;;;;;4.20;3.60;;;;;;;19.96;61.79;99749.48;107215;1271;96078;-64
2022/06/13 10:39:57;;;;;;;8.00;3.50;;;;;;;19.99;61.60;99746.95;106688;1271;139503;-65
2022/06/13 10:42:32;;;;;;;5.10;3.10;;;;;;;19.95;61.07;99743.17;107821;1270;108371;-64
2022/06/13 10:45:02;;;;;;;3.90;3.30;;;;;;;19.93;60.79;99737.35;107690;1270;109046;-64
2022/06/13 10:47:41;;;;;;;4.40;3.30;;;;;;;19.91;60.83;99731.46;107711;1270;138976;-64
2022/06/13 10:50:13;;;;;;;6.90;3.60;;;;;;;19.95;60.76;99724.31;107862;1270;96023;-64
2022/06/13 10:52:46;;;;;;;6.60;3.40;;;;;;;20.02;60.96;99726.91;107725;1270;139318;-65
2022/06/13 10:55:20;;;;;;;7.50;3.40;;;;;;;20.09;60.92;99728.79;107776;1270;107749;-64
2022/06/13 10:57:53;;;;;;;4.80;3.10;;;;;;;20.20;60.92;99733.70;107652;1268;138528;-64
2022/06/13 11:00:25;;;;;;;3.90;2.80;;;;;;;20.31;60.68;99743.68;106890;1270;97834;-66
2022/06/13 11:03:11;;;;;;;8.00;3.40;;;;;;;20.46;60.33;99743.67;107775;1271;95720;-64
2022/06/13 11:05:54;;;;;;;5.10;2.80;;;;;;;20.53;59.92;99734.66;107618;1271;138108;-64
2022/06/13 11:08:23;;;;;;;5.40;2.90;;;;;;;20.58;59.45;99733.38;107831;1270;107794;-64
2022/06/13 11:11:03;;;;;;;8.50;2.90;;;;;;;20.68;58.85;99729.89;107751;1270;138835;-64
2022/06/13 11:13:36;;;;;;;5.10;2.70;;;;;;;20.68;58.59;99720.70;106756;1270;97937;-66
2022/06/13 11:22:39;;;;;;;6.20;3.40;;;;;;;21.04;58.06;99709.52;106745;1270;137765;-63
2022/06/13 11:25:20;;;;;;;5.00;2.90;;;;;;;21.05;57.82;99709.45;107815;1270;107764;-63
2022/06/13 11:28:02;;;;;;;4.40;3.10;;;;;;;21.13;57.56;99709.13;107726;1270;138368;-64
2022/06/13 11:30:44;;;;;;;8.00;3.50;;;;;;;21.14;57.11;99707.66;107474;1270;97809;-64
2022/06/13 11:33:19;;;;;;;4.50;2.90;;;;;;;21.05;56.84;99698.10;106763;1270;111707;-64
2022/06/13 11:35:51;;;;;;;4.50;2.70;;;;;;;21.00;56.97;99694.14;107771;1270;108857;-64
2022/06/13 11:38:23;;;;;;;12.00;4.20;;;;;;;20.98;56.97;99688.27;107758;1270;108882;-63
2022/06/13 11:41:16;;;;;;;7.40;3.40;;;;;;;21.03;57.09;99690.69;107640;1270;137970;-64
2022/06/13 11:43:51;;;;;;;5.60;3.60;;;;;;;21.10;57.37;99696.27;106697;1270;97819;-65
2022/06/13 11:46:38;;;;;;;7.60;3.50;;;;;;;21.19;57.16;99695.59;107732;1270;137487;-63
2022/06/13 11:49:20;;;;;;;;;;;;;;;21.31;56.83;99696.85;107874;1269;107657;-64
2022/06/13 11:51:55;;;;;;;6.40;3.30;;;;;;;21.35;56.81;99693.48;106245;1271;124427;-65
2022/06/13 11:54:29;;;;;;;6.00;3.40;;;;;;;21.32;56.45;99700.08;107801;1270;96214;-65
2022/06/13 11:57:19;;;;;;;3.60;3.10;;;;;;;21.26;56.42;99707.73;107804;1269;96232;-64
2022/06/13 11:59:53;;;;;;;8.90;3.60;;;;;;;21.13;56.62;99712.13;107824;1270;111522;-65
2022/06/13 12:02:24;;;;;;;6.40;3.50;;;;;;;20.98;56.88;99722.20;107863;1270;109506;-63
2022/06/13 12:04:55;;;;;;;7.40;3.60;;;;;;;20.87;57.14;99722.13;107763;1270;138412;-64
2022/06/13 12:07:27;;;;;;;6.60;3.60;;;;;;;20.74;57.71;99732.53;107816;1270;96037;-64